Terminal Aerodrome Forecast
Issued by NWS

Home | Current Version | Previous Version | Text Only | Print | Product List | Glossary On
Versions: 1 2 3 4 5 6 7 8 9 10 11 12 13 14 15 16 17 18 19 20 21 22 23 24 25 26 27
000
FTUS45 KBOU 210420 AAA
TAFBJC
TAF AMD
KBJC 210420Z 2104/2124 29011KT P6SM SCT120 BKN220
      TEMPO 2104/2105 29011G21KT
     FM211000 32011KT P6SM SCT070 BKN150
     FM211500 03010KT P6SM BKN060 BKN110
     FM211800 10010KT P6SM SCT060 BKN110
     FM212100 30012KT P6SM FEW060 SCT110=

USA.gov is the U.S. government's official web portal to all federal, state and local government web resources and services.